Portada
METAR-TAF:

METAR-TAF

Aeroports :

Nijni Nóvgorod, Rússia

latitud: 56-19-48N, longitud: 044-00E, altitud: 78 m

Observació

L'informe es va fer fa 28 minuts, a les 04:00 UTC
Vent 6 kt del Sud/Sud-Est
Temperatura -2°C
Humitat 100%
Pressió 1012 hPa
Visibilitat: 3300 m
Cel cobert a una alçada de 700 ft
neu

METAR: UWGG 160400Z 16003MPS 3300 -SN OVC007 M02/M02 Q1012 R18L/590335 TEMPO -FZRA

Hora: 07:28 (04:28 UTC)

Pronòstic

L'informe es va fer fa 2 hores i 29 minuts, a les 01:59 UTC
Pronòstic vàlid del 16 a les 03 UTC al 17 a les 03 UTC
Vent 6 kt del Sud
Visibilitat: 6000 m
Cel cobert a una alçada de 1100 ft
neu
Temporalment
l' 16 a les 03 UTC al 16 a les 09 UTC
Vent 10 kt del Sud/Sud-Est amb ràfegues de 19 kt
Visibilitat: 2100 m
Cel cobert a una alçada de 500 ft, Cumulonimbus.
xàfecs de neu, (lleu) gebradora, pluja

TAF: UWGG 160159Z 1603/1703 18003MPS 6000 -SN OVC011 TXM00/1612Z TNM02/1603Z TEMPO 1603/1609 15005G10MPS 2100 -SHSN -FZRA OVC005CB

Observacions i pronòstics meteorològics de més de 4000 aeroports (METAR i TAF).

Les estacions disponibles són els punts grocs i vermells al mapa.

Posi el ratolí al punt desitjat per veure el nom de l'estació.

Feu clic per veure les observacions i els pronòstics meteorològics.

Per canviar el mapa: feu clic els botons verds amb una creu de color negre per apropar; al botó verd amb un guió per allunyar la imatge; o en les fletxes verdes per a mapes adjacents.


METAR-TAF: